Time;durP1;ratioP1;P1;durP2;ratioP2;P2;SDS_P1;SDS_P2;PMS_P1;PMS_P2;Temp;Humidity;BMP_temperature;BMP_pressure;BME280_temperature;BME280_humidity;BME280_pressure;Samples;Min_cycle;Max_cycle;Signal;HPM_P1;HPM_P2
2023/12/12 00:02:07;;;;;;;15.83;15.13;;;;;;;-141.02;100.00;38712.94;5114816;28;20203;-79
2023/12/12 00:04:34;;;;;;;15.50;14.90;;;;;;;-141.02;100.00;38745.53;5115094;28;20293;-78
2023/12/12 00:07:01;;;;;;;15.00;14.40;;;;;;;-141.02;100.00;38678.41;5114687;28;20197;-78
2023/12/12 00:09:28;;;;;;;13.47;13.07;;;;;;;-141.02;100.00;38716.75;5114984;28;20284;-77
2023/12/12 00:11:55;;;;;;;12.67;12.27;;;;;;;-141.02;100.00;38714.84;5114835;28;20235;-76
2023/12/12 00:14:24;;;;;;;11.20;10.90;;;;;;;-141.02;100.00;38730.19;5114904;28;20280;-78
2023/12/12 00:16:51;;;;;;;11.00;10.70;;;;;;;-141.02;100.00;38795.38;5114929;28;20220;-78
2023/12/12 00:19:18;;;;;;;10.50;10.20;;;;;;;-141.02;100.00;38854.81;5114789;28;20193;-79
2023/12/12 00:21:45;;;;;;;10.77;10.47;;;;;;;-141.02;100.00;38897.00;5114731;28;20189;-79
2023/12/12 00:24:12;;;;;;;10.40;10.10;;;;;;;-141.02;100.00;38872.06;5114923;28;20200;-78
2023/12/12 00:26:39;;;;;;;10.60;10.30;;;;;;;-141.02;100.00;38897.00;5114681;28;20216;-77
2023/12/12 00:29:06;;;;;;;13.10;12.70;;;;;;;-141.02;100.00;38902.75;5114335;28;20578;-78
2023/12/12 00:31:34;;;;;;;13.57;13.17;;;;;;;-141.02;100.00;38973.69;5114476;28;20331;-78
2023/12/12 00:34:01;;;;;;;10.17;9.87;;;;;;;-141.02;100.00;38898.91;5114240;28;20193;-78
2023/12/12 00:36:28;;;;;;;9.90;9.60;;;;;;;-141.02;100.00;38929.59;5114725;28;20192;-78
2023/12/12 00:38:58;;;;;;;9.87;9.57;;;;;;;-141.02;100.00;38956.44;5114433;28;20225;-79
2023/12/12 00:41:32;;;;;;;9.60;9.30;;;;;;;-141.02;100.00;38969.88;5114027;28;20196;-79
2023/12/12 00:43:59;;;;;;;9.07;8.87;;;;;;;-141.02;100.00;39004.38;5114417;28;20184;-79
2023/12/12 00:46:26;;;;;;;9.10;8.90;;;;;;;-141.02;100.00;39025.47;5113953;28;20229;-79
2023/12/12 00:48:54;;;;;;;8.57;8.37;;;;;;;-141.02;100.00;39069.59;5113636;28;20283;-79
2023/12/12 00:51:21;;;;;;;8.60;8.40;;;;;;;-141.02;100.00;39148.19;5114161;28;20669;-79
2023/12/12 00:53:48;;;;;;;8.40;8.20;;;;;;;-141.02;100.00;39148.19;5113208;28;20312;-79
2023/12/12 00:56:15;;;;;;;8.10;7.90;;;;;;;-141.02;100.00;39175.06;5114004;28;20292;-79
2023/12/12 00:58:42;;;;;;;7.90;7.70;;;;;;;-141.02;100.00;39269.00;5114012;28;20275;-79
2023/12/12 01:01:09;;;;;;;8.10;7.90;;;;;;;-141.02;100.00;39293.94;5113692;28;20570;-79
2023/12/12 01:03:36;;;;;;;7.97;7.77;;;;;;;-141.02;100.00;39359.16;5113667;28;20197;-78
2023/12/12 01:06:05;;;;;;;7.90;7.70;;;;;;;-141.02;100.00;39359.16;5113589;28;20193;-79
2023/12/12 01:08:31;;;;;;;8.27;8.07;;;;;;;-141.02;100.00;39363.00;5113920;28;20272;-79
2023/12/12 01:10:58;;;;;;;8.83;8.63;;;;;;;-141.02;100.00;39270.94;5113697;28;20231;-76
2023/12/12 01:13:25;;;;;;;8.87;8.67;;;;;;;-141.02;100.00;39313.13;5113792;28;20280;-79
2023/12/12 01:15:52;;;;;;;8.40;8.20;;;;;;;-141.02;100.00;39316.97;5113723;28;20281;-78
2023/12/12 01:18:19;;;;;;;9.10;8.90;;;;;;;-141.02;100.00;39288.19;5113965;28;20193;-78
2023/12/12 01:20:46;;;;;;;9.83;9.53;;;;;;;-141.02;100.00;39255.59;5113623;28;20202;-79
2023/12/12 01:23:14;;;;;;;9.60;9.30;;;;;;;-141.02;100.00;39259.44;5113287;28;20284;-80
2023/12/12 01:25:41;;;;;;;10.00;9.70;;;;;;;-141.02;100.00;39236.41;5113583;28;20204;-81
2023/12/12 01:28:08;;;;;;;10.30;10.00;;;;;;;-141.02;100.00;39238.34;5113186;28;20204;-82
2023/12/12 01:30:35;;;;;;;10.10;9.80;;;;;;;-141.02;100.00;39244.09;5113112;28;20235;-79
2023/12/12 01:33:02;;;;;;;10.23;9.93;;;;;;;-141.02;100.00;39232.59;5113689;28;20190;-81
2023/12/12 01:35:30;;;;;;;10.60;10.30;;;;;;;-141.02;100.00;39219.16;5113366;28;20193;-81
2023/12/12 01:38:03;;;;;;;11.60;11.20;;;;;;;-141.02;100.00;39165.47;5112979;28;20207;-81
2023/12/12 01:40:33;;;;;;;11.97;11.57;;;;;;;-141.02;100.00;39106.00;5112987;28;20284;-81
2023/12/12 01:43:06;;;;;;;12.07;11.67;;;;;;;-141.02;100.00;39100.25;5113003;28;20566;-81
2023/12/12 01:45:33;;;;;;;13.07;12.57;;;;;;;-141.02;100.00;39046.56;5113254;28;20199;-81
2023/12/12 01:48:02;;;;;;;13.80;13.30;;;;;;;-141.02;100.00;39021.63;5112831;28;20734;-79
2023/12/12 01:50:35;;;;;;;14.70;14.10;;;;;;;-141.02;100.00;39002.47;5112910;28;20295;-80
2023/12/12 01:53:02;;;;;;;15.20;14.60;;;;;;;-141.02;100.00;38990.97;5113102;28;20208;-80
2023/12/12 01:55:29;;;;;;;18.87;18.07;;;;;;;-141.02;100.00;38941.09;5112462;28;20231;-79
2023/12/12 01:57:57;;;;;;;18.37;17.47;;;;;;;-141.02;100.00;38929.59;5112975;28;20201;-79
2023/12/12 02:00:24;;;;;;;16.90;16.00;;;;;;;-141.02;100.00;38898.91;5112135;28;20272;-78
2023/12/12 02:02:51;;;;;;;16.77;15.87;;;;;;;-141.02;100.00;38898.91;5112740;28;20189;-80
2023/12/12 02:05:18;;;;;;;17.00;16.10;;;;;;;-141.02;100.00;38887.41;5112657;28;20276;-80
2023/12/12 02:07:47;;;;;;;17.30;16.40;;;;;;;-141.02;100.00;38898.91;5112794;28;20231;-79
2023/12/12 02:10:14;;;;;;;17.63;16.73;;;;;;;-141.02;100.00;38910.44;5112813;28;20258;-81
2023/12/12 02:12:41;;;;;;;17.83;16.93;;;;;;;-141.02;100.00;38891.25;5112428;28;20231;-80
2023/12/12 02:15:09;;;;;;;17.53;16.63;;;;;;;-141.02;100.00;38875.91;5112818;28;20225;-81
2023/12/12 02:17:36;;;;;;;17.67;16.73;;;;;;;-141.02;100.00;38810.72;5112822;28;20295;-80
2023/12/12 02:20:05;;;;;;;17.90;16.90;;;;;;;-141.02;100.00;38852.91;5112368;28;20200;-81
2023/12/12 02:22:33;;;;;;;18.27;17.27;;;;;;;-141.02;100.00;38881.66;5112395;28;20292;-80
2023/12/12 02:25:00;;;;;;;18.40;17.40;;;;;;;-141.02;100.00;38868.25;5112734;28;20200;-81
2023/12/12 02:27:33;;;;;;;18.40;17.40;;;;;;;-141.02;100.00;38847.16;5112319;28;20280;-79
2023/12/12 02:30:04;;;;;;;22.37;21.17;;;;;;;-141.02;100.00;38837.56;5112314;28;20568;-80
2023/12/12 02:32:33;;;;;;;23.37;22.17;;;;;;;-141.02;100.00;38849.06;5112802;28;20220;-79
2023/12/12 02:35:01;;;;;;;19.23;18.13;;;;;;;-141.02;100.00;38829.88;5112329;28;20289;-80
2023/12/12 02:37:35;;;;;;;23.10;21.90;;;;;;;-141.02;100.00;38841.41;5112285;28;20193;-80
2023/12/12 02:40:03;;;;;;;25.40;24.00;;;;;;;-141.02;100.00;38860.56;5112364;28;20279;-80
2023/12/12 02:42:30;;;;;;;19.10;18.00;;;;;;;-141.02;100.00;38833.72;5112505;28;20200;-79
2023/12/12 02:44:57;;;;;;;18.70;17.70;;;;;;;-141.02;100.00;38827.97;5112569;28;20201;-80
2023/12/12 02:47:24;;;;;;;18.93;17.83;;;;;;;-141.02;100.00;38826.06;5112460;28;20198;-79
2023/12/12 02:49:51;;;;;;;19.00;17.90;;;;;;;-141.02;100.00;38824.13;5112516;28;20627;-80
2023/12/12 02:52:18;;;;;;;19.43;18.33;;;;;;;-141.02;100.00;38829.88;5111828;28;20316;-81
2023/12/12 02:54:47;;;;;;;19.63;18.53;;;;;;;-141.02;100.00;38850.97;5111838;28;20753;-78
2023/12/12 02:57:14;;;;;;;19.70;18.50;;;;;;;-141.02;100.00;38831.81;5112116;28;20189;-81
2023/12/12 02:59:41;;;;;;;23.13;21.83;;;;;;;-141.02;100.00;38843.31;5112355;28;20244;-78
2023/12/12 03:02:08;;;;;;;20.70;19.50;;;;;;;-141.02;100.00;38799.22;5112338;28;20283;-80
2023/12/12 03:04:35;;;;;;;18.27;17.20;;;;;;;-141.02;100.00;38831.81;5111979;28;20659;-77
2023/12/12 03:07:05;;;;;;;18.20;17.20;;;;;;;-141.02;100.00;38818.38;5112303;28;20280;-80
2023/12/12 03:09:32;;;;;;;17.53;16.63;;;;;;;-141.02;100.00;38835.63;5112039;28;20726;-81
2023/12/12 03:12:00;;;;;;;19.10;18.20;;;;;;;-141.02;100.00;38810.72;5112828;28;20315;-79
2023/12/12 03:14:29;;;;;;;19.73;18.83;;;;;;;-141.02;100.00;38816.47;5115849;28;20649;-79
2023/12/12 03:16:55;;;;;;;19.07;18.07;;;;;;;-141.02;100.00;38822.22;5115784;28;20197;-80
2023/12/12 03:19:23;;;;;;;18.00;17.10;;;;;;;-141.02;100.00;38818.38;5116054;28;20276;-80
2023/12/12 03:21:50;;;;;;;18.40;17.50;;;;;;;-141.02;100.00;38841.41;5116293;28;20200;-79
2023/12/12 03:24:17;;;;;;;18.00;17.00;;;;;;;-141.02;100.00;38818.38;5115820;28;20663;-80
2023/12/12 03:26:44;;;;;;;17.27;16.37;;;;;;;-141.02;100.00;38824.13;5115593;28;20193;-79
2023/12/12 03:29:13;;;;;;;17.00;16.10;;;;;;;-141.02;100.00;38829.88;5115794;28;20276;-80
2023/12/12 03:31:40;;;;;;;16.57;15.73;;;;;;;-141.02;100.00;38814.56;5115776;28;20229;-80
2023/12/12 03:34:08;;;;;;;16.47;15.67;;;;;;;-141.02;100.00;38789.63;5115456;28;20674;-79
2023/12/12 03:36:36;;;;;;;15.40;14.70;;;;;;;-141.02;100.00;38833.72;5115774;28;20220;-80
2023/12/12 03:39:03;;;;;;;15.70;14.90;;;;;;;-141.02;100.00;38822.22;5115883;28;20272;-79
2023/12/12 03:41:30;;;;;;;16.20;15.40;;;;;;;-141.02;100.00;38806.88;5115592;28;20271;-78
2023/12/12 03:43:57;;;;;;;16.30;15.50;;;;;;;-141.02;100.00;38818.38;5115165;28;20204;-81
2023/12/12 03:46:25;;;;;;;15.70;15.00;;;;;;;-141.02;100.00;38839.47;5115460;28;20292;-79
2023/12/12 03:48:52;;;;;;;16.33;15.53;;;;;;;-141.02;100.00;38829.88;5115401;28;20656;-81
2023/12/12 03:51:19;;;;;;;16.07;15.27;;;;;;;-141.02;100.00;38799.22;5115294;28;20236;-81
2023/12/12 03:53:46;;;;;;;16.23;15.43;;;;;;;-141.02;100.00;38810.72;5114897;28;20698;-81
2023/12/12 03:56:13;;;;;;;15.63;14.93;;;;;;;-141.02;100.00;38849.06;5115092;28;20272;-80
2023/12/12 03:58:40;;;;;;;16.27;15.47;;;;;;;-141.02;100.00;38806.88;5115220;28;20285;-81
2023/12/12 04:01:07;;;;;;;16.60;15.70;;;;;;;-141.02;100.00;38799.22;5115227;28;20251;-82
2023/12/12 04:03:35;;;;;;;16.07;15.27;;;;;;;-141.02;100.00;38250.88;5114839;28;20284;-80
2023/12/12 04:06:03;;;;;;;15.97;15.17;;;;;;;-141.02;100.00;38793.47;5115341;28;20280;-80
2023/12/12 04:08:30;;;;;;;15.57;14.77;;;;;;;-141.02;100.00;38781.94;5115080;28;20231;-81
2023/12/12 04:10:57;;;;;;;16.70;15.90;;;;;;;-141.02;100.00;38801.13;5114703;28;20280;-79
2023/12/12 04:13:24;;;;;;;18.80;17.90;;;;;;;-141.02;100.00;38820.31;5114704;28;20293;-80
2023/12/12 04:15:51;;;;;;;15.90;15.10;;;;;;;-141.02;100.00;38822.22;5114596;28;20284;-80
2023/12/12 04:18:18;;;;;;;15.90;15.10;;;;;;;-141.02;100.00;38795.38;5114631;28;20682;-79
2023/12/12 04:20:47;;;;;;;19.27;18.37;;;;;;;-141.02;100.00;38829.88;5114914;28;20280;-81
2023/12/12 04:23:14;;;;;;;20.90;19.87;;;;;;;-141.02;100.00;38822.22;5114010;28;20236;-79
2023/12/12 04:25:41;;;;;;;16.17;15.37;;;;;;;-141.02;100.00;38799.22;5114280;28;20197;-79
2023/12/12 04:28:08;;;;;;;16.50;15.70;;;;;;;-141.02;100.00;38799.22;5114317;28;20708;-81
2023/12/12 04:30:35;;;;;;;16.27;15.47;;;;;;;-141.02;100.00;38845.22;5114668;28;20193;-80
2023/12/12 04:33:02;;;;;;;16.23;15.43;;;;;;;-141.02;100.00;38818.38;5114712;28;20316;-80
2023/12/12 04:35:29;;;;;;;16.77;15.87;;;;;;;-141.02;100.00;38845.22;5114435;28;20197;-79
2023/12/12 04:37:58;;;;;;;17.13;16.23;;;;;;;-141.02;100.00;38829.88;5114240;28;20189;-80
2023/12/12 04:40:28;;;;;;;17.40;16.40;;;;;;;-141.02;100.00;38820.31;5114440;28;20221;-80
2023/12/12 04:42:55;;;;;;;17.30;16.40;;;;;;;-141.02;100.00;38818.38;5114506;28;20242;-80
2023/12/12 04:45:22;;;;;;;17.70;16.70;;;;;;;-141.02;100.00;38824.13;5114096;28;20193;-79
2023/12/12 04:47:49;;;;;;;17.60;16.60;;;;;;;-141.02;100.00;38814.56;5114297;28;20220;-80
2023/12/12 04:50:16;;;;;;;17.50;16.50;;;;;;;-141.02;100.00;38810.72;5114325;27;20220;-80
2023/12/12 04:52:43;;;;;;;17.97;16.97;;;;;;;-141.02;100.00;38803.03;5113860;28;20327;-79
2023/12/12 04:55:11;;;;;;;17.33;16.43;;;;;;;-141.02;100.00;38814.56;5114036;28;20278;-81
2023/12/12 04:57:39;;;;;;;20.13;19.13;;;;;;;-141.02;100.00;38132.00;5113994;28;20200;-72
2023/12/12 05:00:13;;;;;;;22.13;21.03;;;;;;;-141.02;100.00;38810.72;5114128;28;20197;-79
2023/12/12 05:02:41;;;;;;;19.70;18.70;;;;;;;-141.02;100.00;38822.22;5113964;28;20265;-80
2023/12/12 05:05:08;;;;;;;23.30;22.10;;;;;;;-141.02;100.00;38841.41;5113678;28;20200;-79
2023/12/12 05:07:35;;;;;;;27.30;25.90;;;;;;;-141.02;100.00;38944.94;5113566;28;20651;-80
2023/12/12 05:10:02;;;;;;;24.20;23.00;;;;;;;-141.02;100.00;38820.31;5113800;28;20283;-78
2023/12/12 05:12:31;;;;;;;25.43;24.13;;;;;;;-141.02;100.00;38849.06;5113453;28;20315;-80
2023/12/12 05:14:58;;;;;;;24.20;22.90;;;;;;;-141.02;100.00;38850.97;5113380;28;20201;-80
2023/12/12 05:17:25;;;;;;;30.40;28.70;;;;;;;-141.02;100.00;38841.41;5113366;28;20258;-80
2023/12/12 05:20:48;;;;;;;25.30;23.90;;;;;;;-141.02;100.00;38852.91;5113373;28;20634;-78
2023/12/12 05:26:11;;;;;;;30.10;28.40;;;;;;;-141.02;100.00;38841.41;5113928;28;20597;-79
2023/12/12 05:28:39;;;;;;;29.00;27.40;;;;;;;-141.02;100.00;38849.06;5113578;28;20317;-79
2023/12/12 05:31:06;;;;;;;30.60;28.97;;;;;;;-141.02;100.00;38856.72;5113095;28;20224;-80
2023/12/12 05:33:33;;;;;;;32.07;30.27;;;;;;;-141.02;100.00;38864.41;5113283;28;20267;-78
2023/12/12 05:36:00;;;;;;;34.53;32.53;;;;;;;-141.02;100.00;38944.94;5113230;28;20292;-79
2023/12/12 05:38:27;;;;;;;32.13;30.27;;;;;;;-141.02;100.00;38939.19;5113039;28;20284;-79
2023/12/12 05:40:56;;;;;;;30.47;28.77;;;;;;;-141.02;100.00;39019.72;5113287;28;20284;-79
2023/12/12 05:43:23;;;;;;;25.17;23.77;;;;;;;-141.02;100.00;39048.50;5113324;28;20664;-79
2023/12/12 05:45:51;;;;;;;26.17;24.67;;;;;;;-141.02;100.00;39098.34;5113211;28;20272;-80
2023/12/12 05:48:18;;;;;;;23.70;22.30;;;;;;;-141.02;100.00;39167.38;5113181;28;20587;-80
2023/12/12 05:50:45;;;;;;;25.30;23.80;;;;;;;-141.02;100.00;39293.94;5112813;28;20643;-78
2023/12/12 05:53:12;;;;;;;24.47;22.97;;;;;;;-141.02;100.00;39409.00;5113024;28;20316;-80
2023/12/12 05:55:39;;;;;;;22.97;21.57;;;;;;;-141.02;100.00;39470.38;5112634;28;20327;-79
2023/12/12 05:58:07;;;;;;;24.80;23.40;;;;;;;-141.02;100.00;39585.44;5112724;28;20734;-80
2023/12/12 06:00:34;;;;;;;23.97;22.57;;;;;;;-141.02;100.00;39999.75;5112656;28;20686;-80
2023/12/12 06:03:03;;;;;;;23.83;22.43;;;;;;;-141.02;100.00;40239.53;5113036;28;20292;-79
2023/12/12 06:05:30;;;;;;;24.27;22.77;;;;;;;-141.02;100.00;40314.34;5112673;28;20582;-80
2023/12/12 06:07:57;;;;;;;24.80;23.40;;;;;;;-141.02;100.00;40151.28;5113687;28;20226;-79
2023/12/12 06:10:24;;;;;;;24.57;23.07;;;;;;;-141.02;100.00;40168.53;5112623;28;20285;-79
2023/12/12 06:12:51;;;;;;;33.20;31.30;;;;;;;-141.02;100.00;40183.88;5112726;28;20231;-79
2023/12/12 06:15:18;;;;;;;30.73;28.93;;;;;;;-141.02;100.00;40329.69;5112842;28;20231;-80
2023/12/12 06:17:45;;;;;;;29.37;27.67;;;;;;;-141.02;100.00;40559.88;5112748;28;20221;-78
2023/12/12 06:20:13;;;;;;;27.80;26.20;;;;;;;-141.02;100.00;40565.63;5112751;28;20276;-79
2023/12/12 06:22:40;;;;;;;33.27;31.37;;;;;;;-141.02;100.00;40586.75;5112693;28;20283;-77
2023/12/12 06:25:08;;;;;;;30.90;29.20;;;;;;;-141.02;100.00;40486.97;5112389;28;20565;-78
2023/12/12 06:27:36;;;;;;;34.40;32.50;;;;;;;-141.02;100.00;40183.88;5112972;28;20243;-80
2023/12/12 06:30:03;;;;;;;20.43;19.23;;;;;;;-141.02;100.00;40149.38;5112626;28;20193;-79
2023/12/12 06:32:30;;;;;;;20.33;18.93;;;;;;;-141.02;100.00;40582.91;5112409;28;20596;-79
2023/12/12 06:34:57;;;;;;;19.77;18.47;;;;;;;-141.02;100.00;40790.09;5112635;28;20284;-78
2023/12/12 06:37:26;;;;;;;19.90;18.60;;;;;;;-141.02;100.00;40732.56;5112218;28;20671;-76
2023/12/12 06:39:53;;;;;;;28.47;26.77;;;;;;;-141.02;100.00;40836.16;5112253;28;20189;-79
2023/12/12 06:42:21;;;;;;;31.13;29.33;;;;;;;-141.02;100.00;40847.66;5112700;28;20199;-78
2023/12/12 06:44:48;;;;;;;30.90;29.10;;;;;;;-141.02;100.00;41037.63;5112475;28;20542;-79
2023/12/12 06:47:15;;;;;;;29.73;28.03;;;;;;;-141.02;100.00;41087.50;5114024;28;20219;-80
2023/12/12 06:49:42;;;;;;;32.53;30.63;;;;;;;-141.02;100.00;40993.47;5116590;27;20196;-78
2023/12/12 06:52:09;;;;;;;30.33;28.47;;;;;;;-141.02;100.00;40907.16;5116236;28;20283;-79
2023/12/12 06:54:37;;;;;;;37.00;34.70;;;;;;;-141.02;100.00;40966.63;5116126;28;20285;-78
2023/12/12 06:57:04;;;;;;;36.20;34.00;;;;;;;-141.02;100.00;40770.91;5116513;28;20254;-79
2023/12/12 06:59:31;;;;;;;32.90;30.90;;;;;;;-141.02;100.00;40506.16;5116054;28;20197;-78
2023/12/12 07:01:58;;;;;;;35.90;33.70;;;;;;;-141.02;100.00;40563.72;5116451;28;20228;-79
2023/12/12 07:04:25;;;;;;;31.70;29.73;;;;;;;-141.02;100.00;40993.47;5116424;28;20189;-78
2023/12/12 07:06:52;;;;;;;34.37;32.33;;;;;;;-141.02;100.00;40899.47;5115968;28;20667;-79
2023/12/12 07:09:19;;;;;;;31.73;29.90;;;;;;;-141.02;100.00;40776.69;5116277;28;20251;-78
2023/12/12 07:11:48;;;;;;;34.97;32.83;;;;;;;-141.02;100.00;40648.13;5116177;28;20302;-78
2023/12/12 07:14:15;;;;;;;32.47;30.57;;;;;;;-141.02;100.00;40747.91;5116647;28;20282;-78
2023/12/12 07:16:42;;;;;;;36.40;34.20;;;;;;;-141.02;100.00;40893.72;5116050;28;20549;-80
2023/12/12 07:19:09;;;;;;;33.37;31.47;;;;;;;-141.02;100.00;40882.19;5115698;28;20675;-79
2023/12/12 07:21:41;;;;;;;35.40;33.30;;;;;;;-141.02;100.00;40776.69;5115950;28;20232;-79
2023/12/12 07:24:10;;;;;;;37.17;34.87;;;;;;;-141.02;100.00;40721.03;5115623;28;20211;-78
2023/12/12 07:26:37;;;;;;;36.00;33.90;;;;;;;-141.02;100.00;40761.31;5115925;28;20193;-79
2023/12/12 07:29:05;;;;;;;36.30;34.20;;;;;;;-141.02;100.00;41231.41;5115776;28;20232;-80
2023/12/12 07:31:32;;;;;;;39.00;36.80;;;;;;;-141.02;100.00;41480.88;5115837;28;20254;-78
2023/12/12 07:33:59;;;;;;;21.10;19.80;;;;;;;-141.02;100.00;41112.44;5115675;28;20282;-78
2023/12/12 07:36:26;;;;;;;20.63;19.33;;;;;;;-141.02;100.00;41095.19;5115758;28;20242;-78
2023/12/12 07:38:55;;;;;;;26.40;24.80;;;;;;;-141.02;100.00;41116.28;5115730;28;20614;-79
2023/12/12 07:41:22;;;;;;;27.67;25.87;;;;;;;-141.02;100.00;41079.81;5115428;28;20200;-78
2023/12/12 07:43:49;;;;;;;20.90;19.40;;;;;;;-141.02;100.00;41043.38;5115284;28;20278;-78
2023/12/12 07:46:17;;;;;;;20.40;18.90;;;;;;;-141.02;100.00;40976.22;5115694;28;20231;-77
2023/12/12 07:48:44;;;;;;;20.63;19.13;;;;;;;-141.02;100.00;41026.09;5115555;28;20267;-78
2023/12/12 07:51:11;;;;;;;20.50;19.10;;;;;;;-141.02;100.00;41070.22;5115220;28;20193;-79
2023/12/12 07:53:38;;;;;;;20.90;19.40;;;;;;;-141.02;100.00;41288.97;5115126;28;20233;-77
2023/12/12 07:56:06;;;;;;;26.97;25.13;;;;;;;-141.02;100.00;41194.94;5115093;28;20647;-75
2023/12/12 07:58:33;;;;;;;20.37;18.87;;;;;;;-141.02;100.00;40916.75;5113601;28;20225;-75
2023/12/12 08:01:00;;;;;;;20.40;18.90;;;;;;;-141.02;100.00;41296.66;5115241;28;20225;-75
2023/12/12 08:03:28;;;;;;;23.53;21.70;;;;;;;-141.02;100.00;41390.69;5115200;28;20193;-77
2023/12/12 08:05:55;;;;;;;21.73;19.93;;;;;;;-141.02;100.00;41572.97;5115021;28;20229;-78
2023/12/12 08:08:22;;;;;;;20.40;18.60;;;;;;;-141.02;100.00;41592.16;5115166;28;20283;-78
2023/12/12 08:10:50;;;;;;;22.90;20.90;;;;;;;-141.02;100.00;41285.13;5114675;28;20655;-79
2023/12/12 08:13:17;;;;;;;23.10;21.10;;;;;;;-141.02;100.00;41296.66;5114907;28;20232;-78
2023/12/12 08:15:44;;;;;;;22.70;20.70;;;;;;;-141.02;100.00;41335.03;5115240;28;20197;-76
2023/12/12 08:18:11;;;;;;;22.63;20.63;;;;;;;-141.02;100.00;41194.94;5114933;28;20199;-77
2023/12/12 08:20:40;;;;;;;22.63;20.63;;;;;;;-141.02;100.00;41193.03;5114966;28;20643;-76
2023/12/12 08:23:07;;;;;;;22.37;20.37;;;;;;;-141.02;100.00;41235.25;5114720;28;20284;-78
2023/12/12 08:25:34;;;;;;;23.97;21.87;;;;;;;-141.02;100.00;41112.44;5115007;28;20197;-76
2023/12/12 08:28:03;;;;;;;21.37;19.47;;;;;;;-141.02;100.00;40832.31;5114369;28;20620;-74
2023/12/12 08:30:30;;;;;;;21.20;19.30;;;;;;;-141.02;100.00;41444.41;5114684;28;20229;-77
2023/12/12 08:32:57;;;;;;;21.50;19.60;;;;;;;-141.02;100.00;41503.91;5114559;28;20247;-77
2023/12/12 08:35:24;;;;;;;22.50;20.50;;;;;;;-141.02;100.00;41375.31;5114279;28;20293;-78
2023/12/12 08:37:52;;;;;;;22.67;20.67;;;;;;;-141.02;100.00;41277.47;5114517;28;20280;-76
2023/12/12 08:40:19;;;;;;;21.53;19.63;;;;;;;-141.02;100.00;41219.91;5114128;28;20590;-77
2023/12/12 08:42:46;;;;;;;28.70;26.40;;;;;;;-141.02;100.00;41471.28;5114396;28;20272;-77
2023/12/12 08:45:14;;;;;;;30.70;28.30;;;;;;;-141.02;100.00;41381.09;5114342;28;20253;-77
2023/12/12 08:47:40;;;;;;;22.40;20.40;;;;;;;-141.02;100.00;41202.63;5114074;28;20643;-73
2023/12/12 08:50:09;;;;;;;22.33;20.33;;;;;;;-141.02;100.00;41194.94;5114290;28;20730;-77
2023/12/12 08:52:36;;;;;;;21.97;19.97;;;;;;;-141.02;100.00;41120.13;5114387;28;20205;-76
2023/12/12 08:55:09;;;;;;;22.20;20.20;;;;;;;-141.02;100.00;41596.00;5114095;28;20328;-77
2023/12/12 08:57:35;;;;;;;22.30;20.30;;;;;;;-141.02;100.00;41845.50;5113880;28;20276;-75
2023/12/12 09:00:03;;;;;;;23.20;21.10;;;;;;;-141.02;100.00;41995.19;5114142;28;20214;-75
2023/12/12 09:02:30;;;;;;;23.30;21.20;;;;;;;-141.02;95.59;41622.88;5114044;28;20202;-74
2023/12/12 09:04:57;;;;;;;23.50;21.40;;;;;;;-141.02;99.04;41538.44;5114251;28;20193;-76
2023/12/12 09:07:25;;;;;;;23.70;21.50;;;;;;;-141.02;98.14;41411.78;5113695;28;20197;-75
2023/12/12 09:09:52;;;;;;;23.17;21.07;;;;;;;-141.02;99.85;41246.75;5113425;28;20279;-76
2023/12/12 09:12:20;;;;;;;22.90;20.80;;;;;;;-141.02;100.00;41265.94;5113878;28;20196;-76
2023/12/12 09:14:47;;;;;;;22.97;20.87;;;;;;;-141.02;100.00;41294.72;5113630;28;20608;-76
2023/12/12 09:17:14;;;;;;;22.93;20.93;;;;;;;-141.02;100.00;41430.97;5113823;28;20293;-76
2023/12/12 09:19:41;;;;;;;22.40;20.40;;;;;;;-141.02;100.00;41419.47;5113799;28;20292;-74
2023/12/12 09:22:08;;;;;;;22.77;20.77;;;;;;;-141.02;100.00;41312.00;5113646;28;20296;-75
2023/12/12 09:24:35;;;;;;;23.07;20.97;;;;;;;-141.02;100.00;41288.97;5113891;28;20284;-77
2023/12/12 09:27:02;;;;;;;22.27;20.27;;;;;;;-141.02;100.00;41267.88;5113578;28;20289;-76
2023/12/12 09:29:30;;;;;;;29.10;26.77;;;;;;;-141.02;100.00;41256.34;5113282;28;20279;-76
2023/12/12 09:31:57;;;;;;;27.60;25.40;;;;;;;-141.02;100.00;41262.09;5113364;28;20244;-76
2023/12/12 09:34:24;;;;;;;27.83;25.63;;;;;;;-141.02;100.00;41459.75;5113004;28;20680;-77
2023/12/12 09:36:52;;;;;;;21.07;19.23;;;;;;;-141.02;100.00;41294.72;5113444;28;20199;-77
2023/12/12 09:39:19;;;;;;;21.53;19.63;;;;;;;-141.02;100.00;41269.78;5113315;28;20229;-75
2023/12/12 09:41:49;;;;;;;21.47;19.57;;;;;;;-141.02;100.00;41288.97;5113364;28;20200;-73
2023/12/12 09:44:19;;;;;;;22.00;20.10;;;;;;;-141.02;100.00;41384.91;5113232;28;20203;-74
2023/12/12 09:46:49;;;;;;;21.50;19.70;;;;;;;-141.02;100.00;41361.91;5112948;28;20254;-74
2023/12/12 09:49:16;;;;;;;21.70;19.80;;;;;;;-141.02;100.00;41427.13;5113467;28;20276;-73
2023/12/12 09:51:44;;;;;;;21.67;19.77;;;;;;;-141.02;100.00;41500.06;5113108;28;20200;-74
2023/12/12 09:54:12;;;;;;;21.70;19.80;;;;;;;-141.02;100.00;41572.97;5112770;28;20777;-75
2023/12/12 09:56:40;;;;;;;21.80;19.90;;;;;;;-141.02;100.00;41565.31;5113048;28;20288;-74
2023/12/12 09:59:07;;;;;;;22.07;20.13;;;;;;;-141.02;100.00;41427.13;5112991;28;20235;-73
2023/12/12 10:01:36;;;;;;;22.30;20.40;;;;;;;-141.02;100.00;41383.00;5113065;28;20279;-74
2023/12/12 10:04:07;;;;;;;21.23;19.37;;;;;;;-141.02;100.00;41296.66;5112632;28;20548;-73
2023/12/12 10:06:39;;;;;;;21.60;19.70;;;;;;;-141.02;100.00;41381.09;5112992;28;20217;-74
2023/12/12 10:09:07;;;;;;;22.00;20.10;;;;;;;-141.02;100.00;41358.06;5112659;28;20234;-73
2023/12/12 10:11:34;;;;;;;21.57;19.77;;;;;;;-141.02;100.00;41323.50;5112898;28;20197;-74
2023/12/12 10:14:01;;;;;;;21.33;19.45;;;;;;;-141.02;100.00;41269.78;5112731;28;20228;-74
2023/12/12 10:16:30;;;;;;;21.77;19.87;;;;;;;-141.02;100.00;41154.66;5112540;28;20674;-74
2023/12/12 10:19:01;;;;;;;28.07;25.83;;;;;;;-141.02;100.00;40889.88;5112795;28;20232;-74
2023/12/12 10:21:30;;;;;;;27.40;25.30;;;;;;;-141.02;100.00;41127.78;5112297;28;20189;-73
2023/12/12 10:23:58;;;;;;;29.50;27.20;;;;;;;-141.02;100.00;41097.09;5112338;28;20284;-74
2023/12/12 10:26:26;;;;;;;21.47;19.67;;;;;;;-141.02;100.00;41185.34;5112428;28;20232;-73
2023/12/12 10:28:54;;;;;;;21.20;19.40;;;;;;;-141.02;100.00;41250.59;5112631;28;20318;-75
2023/12/12 10:31:22;;;;;;;21.30;19.50;;;;;;;-141.02;100.00;41254.44;5112554;28;20288;-74
2023/12/12 10:33:49;;;;;;;20.73;19.00;;;;;;;-141.02;100.00;41173.84;5112290;28;20228;-73
2023/12/12 10:36:16;;;;;;;20.97;19.17;;;;;;;-141.02;100.00;41231.41;5112604;28;20203;-74
2023/12/12 10:38:45;;;;;;;21.00;19.20;;;;;;;-141.02;100.00;41146.97;5112662;28;20280;-72
2023/12/12 10:41:14;;;;;;;20.90;19.20;;;;;;;-141.02;100.00;41039.53;5112196;28;20200;-73
2023/12/12 10:43:42;;;;;;;19.90;18.30;;;;;;;-141.02;100.00;41146.97;5112968;28;20274;-74
2023/12/12 10:46:12;;;;;;;20.30;18.60;;;;;;;-141.02;100.00;41235.25;5112188;28;20195;-74
2023/12/12 10:48:46;;;;;;;21.00;19.30;;;;;;;-141.02;100.00;41265.94;5112205;28;20646;-74
2023/12/12 10:51:14;;;;;;;20.67;18.97;;;;;;;-141.02;100.00;41196.88;5112240;28;20188;-74
2023/12/12 10:53:43;;;;;;;20.63;18.93;;;;;;;-141.02;100.00;41204.53;5111879;28;20316;-74
2023/12/12 10:56:12;;;;;;;22.73;20.90;;;;;;;-141.02;100.00;41108.59;5112156;28;20655;-74
2023/12/12 10:58:41;;;;;;;19.40;17.80;;;;;;;-141.02;100.00;41047.22;5112062;28;20315;-74
2023/12/12 11:01:10;;;;;;;19.27;17.67;;;;;;;-141.02;100.00;40863.00;5112398;28;20193;-74